MSC Bremen — A8LK7 — position and weather

sailwx.info

Track history (hours):
 
Tides and Currents Weather Stations Pressure Air Temp Water Temp Dewpoint Dewpoint Depression Visibility Wind Speed Wind Dir Waves Ship Positions

MSC Bremen

Last reported at 2018-Apr-18 06:28 UTC. Time now 2018-Apr-19 10:18 UTC.
Position N 36°47' E 000°45'.

Length 294 m; ; draft 13.7 m.

Type: Ship (hazmat cat A). MMSI: 636091270.

Date/timePositionNaut miles runAvg speedWind from/ knotsBaromVisibWave heightAir tempDewpointWater temp
2018-Apr-18 06:28N 36°47' E 000°45'1219.8
2018-Apr-18 05:52N 36°46' E 000°30'1419.9
2018-Apr-18 05:10N 36°44' E 000°13'4120.2
2018-Apr-18 03:07N 36°36' W 000°38'320.6
2018-Apr-18 03:00N 36°36' W 000°41'22120.7
2018-Apr-17 16:18N 36°00' W 005°12'415.5
2018-Apr-17 16:00N 35°60' W 005°17'713.4
2018-Apr-17 15:31N 35°58' W 005°25'15618.0
2018-Apr-17 06:50N 36°24' W 008°36'720.0
2018-Apr-17 06:30N 36°26' W 008°44'1019.9
2018-Apr-17 06:00N 36°29' W 008°56'1020.1
2018-Apr-17 05:30N 36°32' W 009°08'1819.5
2018-Apr-17 04:35N 36°42' W 009°26'620.0
2018-Apr-17 04:17N 36°46' W 009°31'619.4
2018-Apr-17 04:00N 36°51' W 009°34'2020.3
2018-Apr-17 03:02N 37°11' W 009°38'2220.4
2018-Apr-17 01:57N 37°32' W 009°45'920.5
2018-Apr-17 01:30N 37°41' W 009°47'1420.4
2018-Apr-17 00:50N 37°55' W 009°51'720.3
2018-Apr-17 00:30N 38°01' W 009°52'1020.4
2018-Apr-17 00:00N 38°11' W 009°55'1020.4
2018-Apr-16 23:30N 38°21' W 009°59'1020.6
2018-Apr-16 23:00N 38°30' W 010°04'1020.3
2018-Apr-16 22:30N 38°40' W 010°07'1020.7
2018-Apr-16 22:00N 38°51' W 010°07'1020.7
2018-Apr-16 21:30N 39°01' W 010°06'1020.4
2018-Apr-16 21:00N 39°11' W 010°06'1020.3
2018-Apr-16 20:30N 39°21' W 010°06'1020.1
2018-Apr-16 20:00N 39°31' W 010°08'56313.4
2018-Apr-15 02:00N 48°24' W 005°54'2616.2 180 / 221006.010.8 10.0 5.6
2018-Apr-15 00:24N 48°49' W 005°48'614.2
2018-Apr-14 23:59N 48°54' W 005°42'815.8
2018-Apr-14 23:30N 48°57' W 005°32'816.0
2018-Apr-14 23:00N 49°02' W 005°21'3615.0
2018-Apr-14 20:34N 49°24' W 004°37'410.5
2018-Apr-14 20:10N 49°26' W 004°31'2 9.5
2018-Apr-14 19:59N 49°27' W 004°29'6 9.3
2018-Apr-14 19:22N 49°30' W 004°21'714.5
2018-Apr-14 18:53N 49°33' W 004°12'1515.5
2018-Apr-14 17:56N 49°39' W 003°51'1014.9
2018-Apr-14 17:14N 49°44' W 003°37'315.0
2018-Apr-14 17:00N 49°45' W 003°32'814.6
2018-Apr-14 16:29N 49°49' W 003°21'714.2
2018-Apr-14 16:00N 49°52' W 003°12'714.8
2018-Apr-14 15:30N 49°55' W 003°02'815.4
2018-Apr-14 15:00N 49°58' W 002°51'816.4
2018-Apr-14 14:29N 50°01' W 002°38'817.3
2018-Apr-14 14:00N 50°03' W 002°26'918.2
2018-Apr-14 13:29N 50°05' W 002°12'918.8
2018-Apr-14 13:00N 50°08' W 001°58'918.8
2018-Apr-14 12:30N 50°10' W 001°44'918.6
2018-Apr-14 12:00N 50°13' W 001°30'918.0
2018-Apr-14 11:31N 50°15' W 001°16'918.2
2018-Apr-14 11:00N 50°17' W 001°02'917.6
2018-Apr-14 10:30N 50°20' W 000°49'816.8
2018-Apr-14 10:00N 50°22' W 000°37'817.0
2018-Apr-14 09:30N 50°25' W 000°24'917.6
2018-Apr-14 09:00N 50°27' W 000°10'917.2
2018-Apr-14 08:30N 50°28' E 000°03'816.7
2018-Apr-14 08:00N 50°31' E 000°15'714.2
2018-Apr-14 07:30N 50°33' E 000°26'713.7
2018-Apr-14 07:00N 50°35' E 000°36'714.4
2018-Apr-14 06:31N 50°39' E 000°46'816.3
2018-Apr-14 06:00N 50°44' E 000°56'917.8
2018-Apr-14 05:31N 50°49' E 001°07'918.3
2018-Apr-14 05:00N 50°55' E 001°18'918.7
2018-Apr-14 04:30N 51°02' E 001°28'917.7
2018-Apr-14 04:01N 51°08' E 001°38'816.8
2018-Apr-14 03:30N 51°15' E 001°46'816.3
2018-Apr-14 03:00N 51°22' E 001°54'713.4
2018-Apr-14 02:30N 51°24' E 002°03'817.0
2018-Apr-14 02:01N 51°21' E 002°16'816.2
2018-Apr-14 01:31N 51°22' E 002°29'816.4
2018-Apr-14 01:01N 51°23' E 002°42'713.7
2018-Apr-14 00:30N 51°25' E 002°52'918.1
2018-Apr-14 00:00N 51°24' E 003°06'917.3
2018-Apr-13 23:30N 51°24' E 003°20'815.9
2018-Apr-13 23:00N 51°26' E 003°33'4 7.7
2018-Apr-13 22:31N 51°26' E 003°39'713.5
2018-Apr-13 22:00N 51°22' E 003°46'713.9
2018-Apr-13 21:30N 51°24' E 003°57'3 6.6
2018-Apr-13 21:00N 51°23' E 004°02'611.8
2018-Apr-13 20:30N 51°24' E 004°12'611.2
2018-Apr-13 20:00N 51°19' E 004°16'1 2.4
2018-Apr-13 19:29N 51°18' E 004°16'0 0.0
2018-Apr-13 18:56N 51°18' E 004°16'0 0.0
2018-Apr-13 18:29N 51°18' E 004°16'0 0.0
2018-Apr-13 17:59N 51°18' E 004°16'0 0.0
2018-Apr-13 17:29N 51°18' E 004°16'0 0.0
2018-Apr-13 16:59N 51°18' E 004°16'0 0.0
2018-Apr-13 16:29N 51°18' E 004°16'0 0.0
2018-Apr-13 15:59N 51°18' E 004°16'0 0.0
2018-Apr-13 15:29N 51°18' E 004°16'0 0.0
2018-Apr-13 14:59N 51°18' E 004°16'0 0.0
2018-Apr-13 14:29N 51°18' E 004°16'0 0.0
2018-Apr-13 13:59N 51°18' E 004°16'0 0.0
2018-Apr-13 13:26N 51°18' E 004°16'0 0.0
2018-Apr-13 12:59N 51°18' E 004°16'0 0.0
2018-Apr-13 12:29N 51°18' E 004°16'0 0.0
2018-Apr-13 11:59N 51°18' E 004°16'0 0.0
2018-Apr-13 11:29N 51°18' E 004°16'0 0.0
2018-Apr-13 10:59N 51°18' E 004°16'0 0.0
2018-Apr-13 10:26N 51°18' E 004°16'0 0.0
2018-Apr-13 09:56N 51°18' E 004°16'0 0.0
2018-Apr-13 09:26N 51°18' E 004°16'0 0.1
2018-Apr-13 08:59N 51°18' E 004°16'0 0.0
2018-Apr-13 08:26N 51°18' E 004°16'0 0.0
2018-Apr-13 07:59N 51°18' E 004°16'0 0.0
2018-Apr-13 07:29N 51°18' E 004°16'0 0.0
2018-Apr-13 06:59N 51°18' E 004°16'0 0.0
2018-Apr-13 06:26N 51°18' E 004°16'0 0.0
2018-Apr-13 05:56N 51°18' E 004°16'0 0.0
2018-Apr-13 05:29N 51°18' E 004°16'0 0.0
2018-Apr-13 04:59N 51°18' E 004°16'0 0.0
2018-Apr-13 04:29N 51°18' E 004°16'0 0.0
2018-Apr-13 03:59N 51°18' E 004°16'0 0.0
2018-Apr-13 03:29N 51°18' E 004°16'0 0.0
2018-Apr-13 02:56N 51°18' E 004°16'0 0.0
2018-Apr-13 02:29N 51°18' E 004°16'0 0.0
2018-Apr-13 01:59N 51°18' E 004°16'0 0.0
2018-Apr-13 01:29N 51°18' E 004°16'0 0.0
2018-Apr-13 00:59N 51°18' E 004°16'0 0.0
2018-Apr-13 00:29N 51°18' E 004°16'0 0.0
2018-Apr-12 23:59N 51°18' E 004°16'0 0.0
2018-Apr-12 23:29N 51°18' E 004°16'0 0.0
2018-Apr-12 22:59N 51°18' E 004°16'0 0.0
2018-Apr-12 22:29N 51°18' E 004°16'0 0.1
2018-Apr-12 21:59N 51°18' E 004°16'0 0.1
2018-Apr-12 21:23N 51°18' E 004°16'0 0.0
2018-Apr-12 20:59N 51°18' E 004°16'0 0.0
2018-Apr-12 20:29N 51°18' E 004°16'0 0.0
2018-Apr-12 19:59N 51°18' E 004°16'0 0.0
2018-Apr-12 19:29N 51°18' E 004°16'0 0.0
2018-Apr-12 18:59N 51°18' E 004°16'0 0.0
2018-Apr-12 18:26N 51°18' E 004°16'0 0.0
2018-Apr-12 17:59N 51°18' E 004°16'0 0.0
2018-Apr-12 17:29N 51°18' E 004°16'0 0.0
2018-Apr-12 16:56N 51°18' E 004°16'0 0.0
2018-Apr-12 16:29N 51°18' E 004°16'0 0.0
2018-Apr-12 15:59N 51°18' E 004°16'1 1.1
2018-Apr-12 15:29N 51°18' E 004°16'2 4.2
2018-Apr-12 15:00N 51°20' E 004°16'5 9.6
2018-Apr-12 14:30N 51°24' E 004°11'510.7
2018-Apr-12 14:00N 51°23' E 004°02'3 6.2
2018-Apr-12 13:30N 51°24' E 003°57'612.4
2018-Apr-12 13:01N 51°21' E 003°49'612.5
2018-Apr-12 12:30N 51°25' E 003°42'510.5
2018-Apr-12 12:00N 51°25' E 003°34'816.5
2018-Apr-12 11:30N 51°24' E 003°20'1020.3
2018-Apr-12 11:00N 51°24' E 003°04'612.6
2018-Apr-12 10:31N 51°31' E 003°04'918.7
2018-Apr-12 10:00N 51°39' E 003°11'510.9
2018-Apr-12 09:30N 51°44' E 003°14'4 6.4
2018-Apr-12 08:51N 51°48' E 003°17'3 7.7
2018-Apr-12 08:25N 51°50' E 003°21'0 0.2
2018-Apr-12 07:22N 51°49' E 003°21'0 0.0
2018-Apr-12 06:56N 51°49' E 003°21'0 0.0
2018-Apr-12 06:29N 51°49' E 003°21'0 0.0
2018-Apr-12 03:58N 51°49' E 003°21'0 0.4
2018-Apr-12 03:28N 51°50' E 003°21'3 7.3
2018-Apr-12 03:00N 51°53' E 003°19'816.2
2018-Apr-12 02:30N 52°01' E 003°21'915.0
2018-Apr-12 01:55N 52°04' E 003°34'819.3
2018-Apr-12 01:31N 52°04' E 003°47'612.7
2018-Apr-12 01:00N 52°02' E 003°57'5 9.8
2018-Apr-12 00:30N 51°59' E 004°04'2 3.1
2018-Apr-12 00:00N 51°58' E 004°04'0 0.7
2018-Apr-11 23:29N 51°58' E 004°04'0 0.0
2018-Apr-11 22:59N 51°58' E 004°04'0 0.0
2018-Apr-11 22:29N 51°58' E 004°04'0 0.0
2018-Apr-11 21:59N 51°58' E 004°04'0 0.0
2018-Apr-11 21:29N 51°58' E 004°04'0 0.0
2018-Apr-11 20:59N 51°58' E 004°04'0 0.0
2018-Apr-11 20:29N 51°58' E 004°04'0 0.1
2018-Apr-11 19:59N 51°58' E 004°04'0 0.1
2018-Apr-11 19:29N 51°58' E 004°04'0 0.0
2018-Apr-11 18:59N 51°58' E 004°04'0 0.0
2018-Apr-11 18:29N 51°58' E 004°04'0 0.1
2018-Apr-11 17:59N 51°58' E 004°04'0 0.0
2018-Apr-11 17:29N 51°58' E 004°04'0 0.0
2018-Apr-11 16:59N 51°58' E 004°04'0 0.0
2018-Apr-11 16:29N 51°58' E 004°04'0 0.0
2018-Apr-11 15:59N 51°58' E 004°04'0 0.0
2018-Apr-11 15:26N 51°58' E 004°04'0 0.0
2018-Apr-11 14:59N 51°58' E 004°04'0 0.0
2018-Apr-11 14:29N 51°58' E 004°04'0 0.0
2018-Apr-11 13:59N 51°58' E 004°04'0 0.0
2018-Apr-11 13:29N 51°58' E 004°04'0 0.0
2018-Apr-11 12:59N 51°58' E 004°04'0 0.0
2018-Apr-11 12:29N 51°58' E 004°04'0 0.0
2018-Apr-11 11:59N 51°58' E 004°04'0 0.0
2018-Apr-11 11:29N 51°58' E 004°04'0 0.0
2018-Apr-11 10:59N 51°58' E 004°04'0 0.0
2018-Apr-11 10:29N 51°58' E 004°04'0 0.0
2018-Apr-11 09:59N 51°58' E 004°04'0 0.0
2018-Apr-11 09:29N 51°58' E 004°04'0 0.0
2018-Apr-11 08:59N 51°58' E 004°04'0 0.0
2018-Apr-11 08:29N 51°58' E 004°04'0 0.0
2018-Apr-11 07:59N 51°58' E 004°04'0 0.1
2018-Apr-11 07:30N 51°58' E 004°04'1 2.9
2018-Apr-11 07:00N 51°59' E 004°04'510.5
2018-Apr-11 06:30N 51°60' E 003°55'5 9.7
2018-Apr-11 06:00N 52°00' E 003°47'4 8.8
2018-Apr-11 05:30N 51°58' E 003°41'4 8.2
2018-Apr-11 05:00N 51°57' E 003°35'4 8.0
2018-Apr-11 04:30N 51°55' E 003°29'1 1.1
2018-Apr-11 03:59N 51°54' E 003°29'0 0.0
2018-Apr-11 03:29N 51°54' E 003°29'0 0.0
2018-Apr-11 02:50N 51°54' E 003°29'0 0.2
2018-Apr-11 01:23N 51°55' E 003°29'0 1.2
2018-Apr-11 01:00N 51°55' E 003°29'4 8.3
2018-Apr-11 00:31N 51°55' E 003°22'815.4
2018-Apr-11 00:00N 51°53' E 003°10'815.3
2018-Apr-10 23:29N 51°51' E 002°57'915.3
2018-Apr-10 22:53N 51°50' E 002°42'614.9
2018-Apr-10 22:27N 51°52' E 002°32'714.8
2018-Apr-10 22:00N 51°54' E 002°22'915.4
2018-Apr-10 21:26N 51°53' E 002°08'715.7
2018-Apr-10 21:01N 51°50' E 001°58'714.8
2018-Apr-10 20:31N 51°48' E 001°47'714.4
2018-Apr-10 20:01N 51°51' E 001°36'510.4
2018-Apr-10 19:31N 51°56' E 001°32'714.2
2018-Apr-10 19:01N 51°56' E 001°21'3 5.8
2018-Apr-10 18:30N 51°58' E 001°18'0 0.0
2018-Apr-10 18:00N 51°58' E 001°18'0 0.0
2018-Apr-10 17:30N 51°58' E 001°18'0 0.0
2018-Apr-10 17:00N 51°58' E 001°18'0 0.0
2018-Apr-10 16:30N 51°58' E 001°18'0 0.0
2018-Apr-10 16:00N 51°58' E 001°18'0 0.0
2018-Apr-10 15:30N 51°58' E 001°18'0 0.0
2018-Apr-10 15:00N 51°58' E 001°18'0 0.0
2018-Apr-10 14:30N 51°58' E 001°18'0 0.0
2018-Apr-10 14:00N 51°58' E 001°18'0 0.0
2018-Apr-10 13:30N 51°58' E 001°18'0 0.0
2018-Apr-10 13:00N 51°58' E 001°18'0 0.0
2018-Apr-10 12:30N 51°58' E 001°18'0 0.0
2018-Apr-10 11:58N 51°58' E 001°18'0 0.0
2018-Apr-10 11:28N 51°58' E 001°18'0 0.0
2018-Apr-10 10:58N 51°58' E 001°18'0 0.0
2018-Apr-10 10:28N 51°58' E 001°18'0 0.0
2018-Apr-10 09:58N 51°58' E 001°18'0 0.0
2018-Apr-10 09:28N 51°58' E 001°18'0 0.0
2018-Apr-10 08:58N 51°58' E 001°18'0 0.0
2018-Apr-10 08:28N 51°58' E 001°18'0 0.0
2018-Apr-10 07:58N 51°58' E 001°18'0 0.0
2018-Apr-10 07:28N 51°58' E 001°18'0 0.0
2018-Apr-10 06:58N 51°58' E 001°18'0 0.0
2018-Apr-10 06:28N 51°58' E 001°18'0 0.0
2018-Apr-10 05:58N 51°58' E 001°18'0 0.0
2018-Apr-10 05:28N 51°58' E 001°18'0 0.0
2018-Apr-10 04:58N 51°58' E 001°18'0 0.0
2018-Apr-10 04:28N 51°58' E 001°18'0 0.0
2018-Apr-10 03:58N 51°58' E 001°18'0 0.0
2018-Apr-10 03:28N 51°58' E 001°18'0 0.0
2018-Apr-10 02:58N 51°58' E 001°18'0 0.0
2018-Apr-10 02:28N 51°58' E 001°18'0 0.0
2018-Apr-10 01:58N 51°58' E 001°18'0 0.0
2018-Apr-10 01:28N 51°58' E 001°18'0 0.0
2018-Apr-10 01:00N 51°58' E 001°18'1 2.8
2018-Apr-10 00:30N 51°56' E 001°19'611.2
2018-Apr-10 00:00N 51°56' E 001°28'611.1
2018-Apr-09 23:31N 51°52' E 001°34'510.8
2018-Apr-09 23:00N 51°52' E 001°43'4 7.6
2018-Apr-09 22:30N 51°50' E 001°48'816.4
2018-Apr-09 22:00N 51°42' E 001°48'714.8
2018-Apr-09 21:30N 51°35' E 001°52'612.5
2018-Apr-09 21:01N 51°29' E 001°56'815.3
2018-Apr-09 20:30N 51°23' E 002°04'714.5
2018-Apr-09 20:00N 51°16' E 002°06'815.9
2018-Apr-09 19:31N 51°10' E 001°57'816.7
2018-Apr-09 19:00N 51°06' E 001°46'817.0
2018-Apr-09 18:31N 50°60' E 001°36'1516.7
2018-Apr-09 17:35N 50°46' E 001°25'316.0
2018-Apr-09 17:23N 50°43' E 001°23'2516.1
2018-Apr-09 15:51N 50°28' E 000°52'616.1
2018-Apr-09 15:27N 50°27' E 000°43'816.3
2018-Apr-09 15:00N 50°25' E 000°31'815.7
2018-Apr-09 14:30N 50°23' E 000°20'612.9
2018-Apr-09 14:01N 50°21' E 000°10'917.0
2018-Apr-09 13:30N 50°19' W 000°03'816.9
2018-Apr-09 13:00N 50°16' W 000°15'816.9
2018-Apr-09 12:30N 50°14' W 000°28'816.7
2018-Apr-09 12:00N 50°12' W 000°41'817.0
2018-Apr-09 11:30N 50°09' W 000°54'817.0
2018-Apr-09 11:01N 50°07' W 001°06'816.7
2018-Apr-09 10:31N 50°04' W 001°18'816.3
2018-Apr-09 10:00N 50°02' W 001°31'816.1
2018-Apr-09 09:31N 50°01' W 001°43'816.0
2018-Apr-09 09:00N 49°58' W 001°55'815.6
2018-Apr-09 08:31N 49°56' W 002°07'815.6
2018-Apr-09 07:58N 49°54' W 002°19'1015.7
2018-Apr-09 07:20N 49°52' W 002°34'615.8
2018-Apr-09 06:56N 49°50' W 002°44'715.9
2018-Apr-09 06:30N 49°48' W 002°54'816.1
2018-Apr-09 06:00N 49°46' W 003°06'916.2
2018-Apr-09 05:29N 49°41' W 003°17'5915.8
2018-Apr-09 01:43N 49°10' W 004°34'316.0
2018-Apr-09 01:30N 49°08' W 004°39'816.0
2018-Apr-09 01:00N 49°04' W 004°50'816.2
2018-Apr-09 00:30N 48°60' W 004°60'1016.3
2018-Apr-08 23:54N 48°55' W 005°13'616.6
2018-Apr-08 23:30N 48°51' W 005°21'816.5
2018-Apr-08 23:00N 48°47' W 005°32'2716.3
2018-Apr-08 21:18N 48°24' W 005°56'516.7
2018-Apr-08 21:00N 48°20' W 006°00'816.7
2018-Apr-08 20:30N 48°13' W 006°06'816.5
2018-Apr-08 20:00N 48°06' W 006°13'816.7
2018-Apr-08 19:30N 47°59' W 006°21'13417.8
2018-Apr-08 12:00N 46°12' W 008°18'   270 / 91005.010.8 16.014.3
Track history (hours):
 
Tides and Currents Weather Stations Pressure Air Temp Water Temp Dewpoint Dewpoint Depression Visibility Wind Speed Wind Dir Waves Ship Positions

MSC Bremen

Last reported at 2018-Apr-18 06:28 UTC. Time now 2018-Apr-19 10:18 UTC.
Position N 36°47' E 000°45'.

Length 294 m; ; draft 13.7 m.

Type: Ship (hazmat cat A). MMSI: 636091270.

Date/timePositionNaut miles runAvg speedWind from/ knotsBaromVisibWave heightAir tempDewpointWater temp
2018-Apr-18 06:28N 36°47' E 000°45'1219.8
2018-Apr-18 05:52N 36°46' E 000°30'1419.9
2018-Apr-18 05:10N 36°44' E 000°13'4120.2
2018-Apr-18 03:07N 36°36' W 000°38'320.6
2018-Apr-18 03:00N 36°36' W 000°41'22120.7
2018-Apr-17 16:18N 36°00' W 005°12'415.5
2018-Apr-17 16:00N 35°60' W 005°17'713.4
2018-Apr-17 15:31N 35°58' W 005°25'15618.0
2018-Apr-17 06:50N 36°24' W 008°36'720.0
2018-Apr-17 06:30N 36°26' W 008°44'1019.9
2018-Apr-17 06:00N 36°29' W 008°56'1020.1
2018-Apr-17 05:30N 36°32' W 009°08'1819.5
2018-Apr-17 04:35N 36°42' W 009°26'620.0
2018-Apr-17 04:17N 36°46' W 009°31'619.4
2018-Apr-17 04:00N 36°51' W 009°34'2020.3
2018-Apr-17 03:02N 37°11' W 009°38'2220.4
2018-Apr-17 01:57N 37°32' W 009°45'920.5
2018-Apr-17 01:30N 37°41' W 009°47'1420.4
2018-Apr-17 00:50N 37°55' W 009°51'720.3
2018-Apr-17 00:30N 38°01' W 009°52'1020.4
2018-Apr-17 00:00N 38°11' W 009°55'1020.4
2018-Apr-16 23:30N 38°21' W 009°59'1020.6
2018-Apr-16 23:00N 38°30' W 010°04'1020.3
2018-Apr-16 22:30N 38°40' W 010°07'1020.7
2018-Apr-16 22:00N 38°51' W 010°07'1020.7
2018-Apr-16 21:30N 39°01' W 010°06'1020.4
2018-Apr-16 21:00N 39°11' W 010°06'1020.3
2018-Apr-16 20:30N 39°21' W 010°06'1020.1
2018-Apr-16 20:00N 39°31' W 010°08'56313.4
2018-Apr-15 02:00N 48°24' W 005°54'2616.2 180 / 221006.010.8 10.0 5.6
2018-Apr-15 00:24N 48°49' W 005°48'614.2
2018-Apr-14 23:59N 48°54' W 005°42'815.8
2018-Apr-14 23:30N 48°57' W 005°32'816.0
2018-Apr-14 23:00N 49°02' W 005°21'3615.0
2018-Apr-14 20:34N 49°24' W 004°37'410.5
2018-Apr-14 20:10N 49°26' W 004°31'2 9.5
2018-Apr-14 19:59N 49°27' W 004°29'6 9.3
2018-Apr-14 19:22N 49°30' W 004°21'714.5
2018-Apr-14 18:53N 49°33' W 004°12'1515.5
2018-Apr-14 17:56N 49°39' W 003°51'1014.9
2018-Apr-14 17:14N 49°44' W 003°37'315.0
2018-Apr-14 17:00N 49°45' W 003°32'814.6
2018-Apr-14 16:29N 49°49' W 003°21'714.2
2018-Apr-14 16:00N 49°52' W 003°12'714.8
2018-Apr-14 15:30N 49°55' W 003°02'815.4
2018-Apr-14 15:00N 49°58' W 002°51'816.4
2018-Apr-14 14:29N 50°01' W 002°38'817.3
2018-Apr-14 14:00N 50°03' W 002°26'918.2
2018-Apr-14 13:29N 50°05' W 002°12'918.8
2018-Apr-14 13:00N 50°08' W 001°58'918.8
2018-Apr-14 12:30N 50°10' W 001°44'918.6
2018-Apr-14 12:00N 50°13' W 001°30'918.0
2018-Apr-14 11:31N 50°15' W 001°16'918.2
2018-Apr-14 11:00N 50°17' W 001°02'917.6
2018-Apr-14 10:30N 50°20' W 000°49'816.8
2018-Apr-14 10:00N 50°22' W 000°37'817.0
2018-Apr-14 09:30N 50°25' W 000°24'917.6
2018-Apr-14 09:00N 50°27' W 000°10'917.2
2018-Apr-14 08:30N 50°28' E 000°03'816.7
2018-Apr-14 08:00N 50°31' E 000°15'714.2
2018-Apr-14 07:30N 50°33' E 000°26'713.7
2018-Apr-14 07:00N 50°35' E 000°36'714.4
2018-Apr-14 06:31N 50°39' E 000°46'816.3
2018-Apr-14 06:00N 50°44' E 000°56'917.8
2018-Apr-14 05:31N 50°49' E 001°07'918.3
2018-Apr-14 05:00N 50°55' E 001°18'918.7
2018-Apr-14 04:30N 51°02' E 001°28'917.7
2018-Apr-14 04:01N 51°08' E 001°38'816.8
2018-Apr-14 03:30N 51°15' E 001°46'816.3
2018-Apr-14 03:00N 51°22' E 001°54'713.4
2018-Apr-14 02:30N 51°24' E 002°03'817.0
2018-Apr-14 02:01N 51°21' E 002°16'816.2
2018-Apr-14 01:31N 51°22' E 002°29'816.4
2018-Apr-14 01:01N 51°23' E 002°42'713.7
2018-Apr-14 00:30N 51°25' E 002°52'918.1
2018-Apr-14 00:00N 51°24' E 003°06'917.3
2018-Apr-13 23:30N 51°24' E 003°20'815.9
2018-Apr-13 23:00N 51°26' E 003°33'4 7.7
2018-Apr-13 22:31N 51°26' E 003°39'713.5
2018-Apr-13 22:00N 51°22' E 003°46'713.9
2018-Apr-13 21:30N 51°24' E 003°57'3 6.6
2018-Apr-13 21:00N 51°23' E 004°02'611.8
2018-Apr-13 20:30N 51°24' E 004°12'611.2
2018-Apr-13 20:00N 51°19' E 004°16'1 2.4
2018-Apr-13 19:29N 51°18' E 004°16'0 0.0
2018-Apr-13 18:56N 51°18' E 004°16'0 0.0
2018-Apr-13 18:29N 51°18' E 004°16'0 0.0
2018-Apr-13 17:59N 51°18' E 004°16'0 0.0
2018-Apr-13 17:29N 51°18' E 004°16'0 0.0
2018-Apr-13 16:59N 51°18' E 004°16'0 0.0
2018-Apr-13 16:29N 51°18' E 004°16'0 0.0
2018-Apr-13 15:59N 51°18' E 004°16'0 0.0
2018-Apr-13 15:29N 51°18' E 004°16'0 0.0
2018-Apr-13 14:59N 51°18' E 004°16'0 0.0
2018-Apr-13 14:29N 51°18' E 004°16'0 0.0
2018-Apr-13 13:59N 51°18' E 004°16'0 0.0
2018-Apr-13 13:26N 51°18' E 004°16'0 0.0
2018-Apr-13 12:59N 51°18' E 004°16'0 0.0
2018-Apr-13 12:29N 51°18' E 004°16'0 0.0
2018-Apr-13 11:59N 51°18' E 004°16'0 0.0
2018-Apr-13 11:29N 51°18' E 004°16'0 0.0
2018-Apr-13 10:59N 51°18' E 004°16'0 0.0
2018-Apr-13 10:26N 51°18' E 004°16'0 0.0
2018-Apr-13 09:56N 51°18' E 004°16'0 0.0
2018-Apr-13 09:26N 51°18' E 004°16'0 0.1
2018-Apr-13 08:59N 51°18' E 004°16'0 0.0
2018-Apr-13 08:26N 51°18' E 004°16'0 0.0
2018-Apr-13 07:59N 51°18' E 004°16'0 0.0
2018-Apr-13 07:29N 51°18' E 004°16'0 0.0
2018-Apr-13 06:59N 51°18' E 004°16'0 0.0
2018-Apr-13 06:26N 51°18' E 004°16'0 0.0
2018-Apr-13 05:56N 51°18' E 004°16'0 0.0
2018-Apr-13 05:29N 51°18' E 004°16'0 0.0
2018-Apr-13 04:59N 51°18' E 004°16'0 0.0
2018-Apr-13 04:29N 51°18' E 004°16'0 0.0
2018-Apr-13 03:59N 51°18' E 004°16'0 0.0
2018-Apr-13 03:29N 51°18' E 004°16'0 0.0
2018-Apr-13 02:56N 51°18' E 004°16'0 0.0
2018-Apr-13 02:29N 51°18' E 004°16'0 0.0
2018-Apr-13 01:59N 51°18' E 004°16'0 0.0
2018-Apr-13 01:29N 51°18' E 004°16'0 0.0
2018-Apr-13 00:59N 51°18' E 004°16'0 0.0
2018-Apr-13 00:29N 51°18' E 004°16'0 0.0
2018-Apr-12 23:59N 51°18' E 004°16'0 0.0
2018-Apr-12 23:29N 51°18' E 004°16'0 0.0
2018-Apr-12 22:59N 51°18' E 004°16'0 0.0
2018-Apr-12 22:29N 51°18' E 004°16'0 0.1
2018-Apr-12 21:59N 51°18' E 004°16'0 0.1
2018-Apr-12 21:23N 51°18' E 004°16'0 0.0
2018-Apr-12 20:59N 51°18' E 004°16'0 0.0
2018-Apr-12 20:29N 51°18' E 004°16'0 0.0
2018-Apr-12 19:59N 51°18' E 004°16'0 0.0
2018-Apr-12 19:29N 51°18' E 004°16'0 0.0
2018-Apr-12 18:59N 51°18' E 004°16'0 0.0
2018-Apr-12 18:26N 51°18' E 004°16'0 0.0
2018-Apr-12 17:59N 51°18' E 004°16'0 0.0
2018-Apr-12 17:29N 51°18' E 004°16'0 0.0
2018-Apr-12 16:56N 51°18' E 004°16'0 0.0
2018-Apr-12 16:29N 51°18' E 004°16'0 0.0
2018-Apr-12 15:59N 51°18' E 004°16'1 1.1
2018-Apr-12 15:29N 51°18' E 004°16'2 4.2
2018-Apr-12 15:00N 51°20' E 004°16'5 9.6
2018-Apr-12 14:30N 51°24' E 004°11'510.7
2018-Apr-12 14:00N 51°23' E 004°02'3 6.2
2018-Apr-12 13:30N 51°24' E 003°57'612.4
2018-Apr-12 13:01N 51°21' E 003°49'612.5
2018-Apr-12 12:30N 51°25' E 003°42'510.5
2018-Apr-12 12:00N 51°25' E 003°34'816.5
2018-Apr-12 11:30N 51°24' E 003°20'1020.3
2018-Apr-12 11:00N 51°24' E 003°04'612.6
2018-Apr-12 10:31N 51°31' E 003°04'918.7
2018-Apr-12 10:00N 51°39' E 003°11'510.9
2018-Apr-12 09:30N 51°44' E 003°14'4 6.4
2018-Apr-12 08:51N 51°48' E 003°17'3 7.7
2018-Apr-12 08:25N 51°50' E 003°21'0 0.2
2018-Apr-12 07:22N 51°49' E 003°21'0 0.0
2018-Apr-12 06:56N 51°49' E 003°21'0 0.0
2018-Apr-12 06:29N 51°49' E 003°21'0 0.0
2018-Apr-12 03:58N 51°49' E 003°21'0 0.4
2018-Apr-12 03:28N 51°50' E 003°21'3 7.3
2018-Apr-12 03:00N 51°53' E 003°19'816.2
2018-Apr-12 02:30N 52°01' E 003°21'915.0
2018-Apr-12 01:55N 52°04' E 003°34'819.3
2018-Apr-12 01:31N 52°04' E 003°47'612.7
2018-Apr-12 01:00N 52°02' E 003°57'5 9.8
2018-Apr-12 00:30N 51°59' E 004°04'2 3.1
2018-Apr-12 00:00N 51°58' E 004°04'0 0.7
2018-Apr-11 23:29N 51°58' E 004°04'0 0.0
2018-Apr-11 22:59N 51°58' E 004°04'0 0.0
2018-Apr-11 22:29N 51°58' E 004°04'0 0.0
2018-Apr-11 21:59N 51°58' E 004°04'0 0.0
2018-Apr-11 21:29N 51°58' E 004°04'0 0.0
2018-Apr-11 20:59N 51°58' E 004°04'0 0.0
2018-Apr-11 20:29N 51°58' E 004°04'0 0.1
2018-Apr-11 19:59N 51°58' E 004°04'0 0.1
2018-Apr-11 19:29N 51°58' E 004°04'0 0.0
2018-Apr-11 18:59N 51°58' E 004°04'0 0.0
2018-Apr-11 18:29N 51°58' E 004°04'0 0.1
2018-Apr-11 17:59N 51°58' E 004°04'0 0.0
2018-Apr-11 17:29N 51°58' E 004°04'0 0.0
2018-Apr-11 16:59N 51°58' E 004°04'0 0.0
2018-Apr-11 16:29N 51°58' E 004°04'0 0.0
2018-Apr-11 15:59N 51°58' E 004°04'0 0.0
2018-Apr-11 15:26N 51°58' E 004°04'0 0.0
2018-Apr-11 14:59N 51°58' E 004°04'0 0.0
2018-Apr-11 14:29N 51°58' E 004°04'0 0.0
2018-Apr-11 13:59N 51°58' E 004°04'0 0.0
2018-Apr-11 13:29N 51°58' E 004°04'0 0.0
2018-Apr-11 12:59N 51°58' E 004°04'0 0.0
2018-Apr-11 12:29N 51°58' E 004°04'0 0.0
2018-Apr-11 11:59N 51°58' E 004°04'0 0.0
2018-Apr-11 11:29N 51°58' E 004°04'0 0.0
2018-Apr-11 10:59N 51°58' E 004°04'0 0.0
2018-Apr-11 10:29N 51°58' E 004°04'0 0.0
2018-Apr-11 09:59N 51°58' E 004°04'0 0.0
2018-Apr-11 09:29N 51°58' E 004°04'0 0.0
2018-Apr-11 08:59N 51°58' E 004°04'0 0.0
2018-Apr-11 08:29N 51°58' E 004°04'0 0.0
2018-Apr-11 07:59N 51°58' E 004°04'0 0.1
2018-Apr-11 07:30N 51°58' E 004°04'1 2.9
2018-Apr-11 07:00N 51°59' E 004°04'510.5
2018-Apr-11 06:30N 51°60' E 003°55'5 9.7
2018-Apr-11 06:00N 52°00' E 003°47'4 8.8
2018-Apr-11 05:30N 51°58' E 003°41'4 8.2
2018-Apr-11 05:00N 51°57' E 003°35'4 8.0
2018-Apr-11 04:30N 51°55' E 003°29'1 1.1
2018-Apr-11 03:59N 51°54' E 003°29'0 0.0
2018-Apr-11 03:29N 51°54' E 003°29'0 0.0
2018-Apr-11 02:50N 51°54' E 003°29'0 0.2
2018-Apr-11 01:23N 51°55' E 003°29'0 1.2
2018-Apr-11 01:00N 51°55' E 003°29'4 8.3
2018-Apr-11 00:31N 51°55' E 003°22'815.4
2018-Apr-11 00:00N 51°53' E 003°10'815.3
2018-Apr-10 23:29N 51°51' E 002°57'915.3
2018-Apr-10 22:53N 51°50' E 002°42'614.9
2018-Apr-10 22:27N 51°52' E 002°32'714.8
2018-Apr-10 22:00N 51°54' E 002°22'915.4
2018-Apr-10 21:26N 51°53' E 002°08'715.7
2018-Apr-10 21:01N 51°50' E 001°58'714.8
2018-Apr-10 20:31N 51°48' E 001°47'714.4
2018-Apr-10 20:01N 51°51' E 001°36'510.4
2018-Apr-10 19:31N 51°56' E 001°32'714.2
2018-Apr-10 19:01N 51°56' E 001°21'3 5.8
2018-Apr-10 18:30N 51°58' E 001°18'0 0.0
2018-Apr-10 18:00N 51°58' E 001°18'0 0.0
2018-Apr-10 17:30N 51°58' E 001°18'0 0.0
2018-Apr-10 17:00N 51°58' E 001°18'0 0.0
2018-Apr-10 16:30N 51°58' E 001°18'0 0.0
2018-Apr-10 16:00N 51°58' E 001°18'0 0.0
2018-Apr-10 15:30N 51°58' E 001°18'0 0.0
2018-Apr-10 15:00N 51°58' E 001°18'0 0.0
2018-Apr-10 14:30N 51°58' E 001°18'0 0.0
2018-Apr-10 14:00N 51°58' E 001°18'0 0.0
2018-Apr-10 13:30N 51°58' E 001°18'0 0.0
2018-Apr-10 13:00N 51°58' E 001°18'0 0.0
2018-Apr-10 12:30N 51°58' E 001°18'0 0.0
2018-Apr-10 11:58N 51°58' E 001°18'0 0.0
2018-Apr-10 11:28N 51°58' E 001°18'0 0.0
2018-Apr-10 10:58N 51°58' E 001°18'0 0.0
2018-Apr-10 10:28N 51°58' E 001°18'0 0.0
2018-Apr-10 09:58N 51°58' E 001°18'0 0.0
2018-Apr-10 09:28N 51°58' E 001°18'0 0.0
2018-Apr-10 08:58N 51°58' E 001°18'0 0.0
2018-Apr-10 08:28N 51°58' E 001°18'0 0.0
2018-Apr-10 07:58N 51°58' E 001°18'0 0.0
2018-Apr-10 07:28N 51°58' E 001°18'0 0.0
2018-Apr-10 06:58N 51°58' E 001°18'0 0.0
2018-Apr-10 06:28N 51°58' E 001°18'0 0.0
2018-Apr-10 05:58N 51°58' E 001°18'0 0.0
2018-Apr-10 05:28N 51°58' E 001°18'0 0.0
2018-Apr-10 04:58N 51°58' E 001°18'0 0.0
2018-Apr-10 04:28N 51°58' E 001°18'0 0.0
2018-Apr-10 03:58N 51°58' E 001°18'0 0.0
2018-Apr-10 03:28N 51°58' E 001°18'0 0.0
2018-Apr-10 02:58N 51°58' E 001°18'0 0.0
2018-Apr-10 02:28N 51°58' E 001°18'0 0.0
2018-Apr-10 01:58N 51°58' E 001°18'0 0.0
2018-Apr-10 01:28N 51°58' E 001°18'0 0.0
2018-Apr-10 01:00N 51°58' E 001°18'1 2.8
2018-Apr-10 00:30N 51°56' E 001°19'611.2
2018-Apr-10 00:00N 51°56' E 001°28'611.1
2018-Apr-09 23:31N 51°52' E 001°34'510.8
2018-Apr-09 23:00N 51°52' E 001°43'4 7.6
2018-Apr-09 22:30N 51°50' E 001°48'816.4
2018-Apr-09 22:00N 51°42' E 001°48'714.8
2018-Apr-09 21:30N 51°35' E 001°52'612.5
2018-Apr-09 21:01N 51°29' E 001°56'815.3
2018-Apr-09 20:30N 51°23' E 002°04'714.5
2018-Apr-09 20:00N 51°16' E 002°06'815.9
2018-Apr-09 19:31N 51°10' E 001°57'816.7
2018-Apr-09 19:00N 51°06' E 001°46'817.0
2018-Apr-09 18:31N 50°60' E 001°36'1516.7
2018-Apr-09 17:35N 50°46' E 001°25'316.0
2018-Apr-09 17:23N 50°43' E 001°23'2516.1
2018-Apr-09 15:51N 50°28' E 000°52'616.1
2018-Apr-09 15:27N 50°27' E 000°43'816.3
2018-Apr-09 15:00N 50°25' E 000°31'815.7
2018-Apr-09 14:30N 50°23' E 000°20'612.9
2018-Apr-09 14:01N 50°21' E 000°10'917.0
2018-Apr-09 13:30N 50°19' W 000°03'816.9
2018-Apr-09 13:00N 50°16' W 000°15'816.9
2018-Apr-09 12:30N 50°14' W 000°28'816.7
2018-Apr-09 12:00N 50°12' W 000°41'817.0
2018-Apr-09 11:30N 50°09' W 000°54'817.0
2018-Apr-09 11:01N 50°07' W 001°06'816.7
2018-Apr-09 10:31N 50°04' W 001°18'816.3
2018-Apr-09 10:00N 50°02' W 001°31'816.1
2018-Apr-09 09:31N 50°01' W 001°43'816.0
2018-Apr-09 09:00N 49°58' W 001°55'815.6
2018-Apr-09 08:31N 49°56' W 002°07'815.6
2018-Apr-09 07:58N 49°54' W 002°19'1015.7
2018-Apr-09 07:20N 49°52' W 002°34'615.8
2018-Apr-09 06:56N 49°50' W 002°44'715.9
2018-Apr-09 06:30N 49°48' W 002°54'816.1
2018-Apr-09 06:00N 49°46' W 003°06'916.2
2018-Apr-09 05:29N 49°41' W 003°17'5915.8
2018-Apr-09 01:43N 49°10' W 004°34'316.0
2018-Apr-09 01:30N 49°08' W 004°39'816.0
2018-Apr-09 01:00N 49°04' W 004°50'816.2
2018-Apr-09 00:30N 48°60' W 004°60'1016.3
2018-Apr-08 23:54N 48°55' W 005°13'616.6
2018-Apr-08 23:30N 48°51' W 005°21'816.5
2018-Apr-08 23:00N 48°47' W 005°32'2716.3
2018-Apr-08 21:18N 48°24' W 005°56'516.7
2018-Apr-08 21:00N 48°20' W 006°00'816.7
2018-Apr-08 20:30N 48°13' W 006°06'816.5
2018-Apr-08 20:00N 48°06' W 006°13'816.7
2018-Apr-08 19:30N 47°59' W 006°21'13417.8
2018-Apr-08 12:00N 46°12' W 008°18'   270 / 91005.010.8 16.014.3

Dump ship's entire track history